Terminal Aerodrome Forecast
Issued by NWS Charleston, WV

Current Version | Previous Version | Graphics & Text | Print | Product List | Glossary On
Versions: 1 2 3 4 5 6 7 8 9 10 11 12 13 14 15 16 17 18 19 20 21 22 23
000
FTUS41 KRLX 221100
TAFHTS
TAF
KHTS 221122Z 2212/2312 30007KT P6SM OVC015
     FM222200 34003KT P6SM OVC025
     FM230500 00000KT P6SM BKN035
     FM231000 00000KT P6SM SCT200=

USA.gov is the U.S. government's official web portal to all federal, state and local government web resources and services.